createdAt,value
2023-02-11T00:00:17.677Z,6.20
2023-02-11T00:02:47.762Z,6.20
2023-02-11T00:05:15.011Z,6.20
2023-02-11T00:07:43.432Z,6.10
2023-02-11T00:10:10.553Z,6.10
2023-02-11T00:12:40.946Z,6.30
2023-02-11T00:15:14.352Z,6.30
2023-02-11T00:17:41.437Z,6.30
2023-02-11T00:20:09.403Z,6.40
2023-02-11T00:22:44.464Z,6.60
2023-02-11T00:25:11.280Z,6.70
2023-02-11T00:27:38.261Z,6.50
2023-02-11T00:30:05.965Z,6.40
2023-02-11T00:32:32.971Z,6.40
2023-02-11T00:35:00.000Z,6.40
2023-02-11T00:37:27.176Z,6.20
2023-02-11T00:39:55.756Z,6.20
2023-02-11T00:42:22.808Z,6.10
2023-02-11T00:44:49.867Z,6.10
2023-02-11T00:47:16.903Z,6.10
2023-02-11T00:49:44.061Z,6.10
2023-02-11T00:52:11.168Z,6.00
2023-02-11T00:54:38.416Z,5.80
2023-02-11T00:57:06.899Z,5.80
2023-02-11T00:59:33.964Z,5.90
2023-02-11T01:02:01.193Z,5.70
2023-02-11T01:04:28.281Z,5.70
2023-02-11T01:06:55.380Z,5.70
2023-02-11T01:09:22.429Z,5.60
2023-02-11T01:11:49.598Z,5.60
2023-02-11T01:14:17.978Z,5.50
2023-02-11T01:16:45.027Z,5.70
2023-02-11T01:19:12.410Z,5.80
2023-02-11T01:21:39.398Z,5.70
2023-02-11T01:24:06.834Z,5.70
2023-02-11T01:26:33.895Z,5.80
2023-02-11T01:29:00.921Z,5.80
2023-02-11T01:31:31.100Z,5.90
2023-02-11T01:33:59.031Z,5.80
2023-02-11T01:36:26.057Z,5.70
2023-02-11T01:38:53.056Z,5.80
2023-02-11T01:41:20.075Z,5.90
2023-02-11T01:43:54.527Z,5.90
2023-02-11T01:46:30.603Z,6.00
2023-02-11T01:49:02.767Z,6.00
2023-02-11T01:51:34.617Z,6.00
2023-02-11T01:54:03.774Z,5.90
2023-02-11T01:56:31.985Z,6.00
2023-02-11T01:59:11.750Z,6.00
2023-02-11T02:01:43.375Z,6.00
2023-02-11T02:04:11.600Z,6.00
2023-02-11T02:06:43.809Z,6.00
2023-02-11T02:09:20.206Z,6.00
2023-02-11T02:11:47.431Z,6.00
2023-02-11T02:14:14.576Z,5.90
2023-02-11T02:16:43.167Z,6.00
2023-02-11T02:20:03.184Z,6.00
2023-02-11T02:23:02.438Z,6.00
2023-02-11T02:25:48.625Z,6.00
2023-02-11T02:28:36.890Z,6.10
2023-02-11T02:31:25.133Z,6.40
2023-02-11T02:34:00.623Z,6.30
2023-02-11T02:36:34.991Z,6.20
2023-02-11T02:39:05.799Z,6.20
2023-02-11T02:41:34.776Z,6.10
2023-02-11T02:44:02.435Z,6.10
2023-02-11T02:46:32.564Z,6.20
2023-02-11T02:49:01.165Z,6.20
2023-02-11T02:51:42.789Z,6.10
2023-02-11T02:54:29.753Z,6.10
2023-02-11T02:57:06.932Z,6.20
2023-02-11T02:59:45.905Z,6.30
2023-02-11T03:02:18.449Z,6.40
2023-02-11T03:04:53.696Z,6.30
2023-02-11T03:07:27.790Z,6.20
2023-02-11T03:10:00.495Z,6.20
2023-02-11T03:12:30.096Z,6.10
2023-02-11T03:14:58.305Z,6.30
2023-02-11T03:17:27.330Z,6.50
2023-02-11T03:19:58.945Z,6.60
2023-02-11T03:22:30.684Z,6.60
2023-02-11T03:24:58.204Z,6.70
2023-02-11T03:27:30.590Z,6.80
2023-02-11T03:30:02.013Z,6.70
2023-02-11T03:32:32.381Z,6.80
2023-02-11T03:35:05.358Z,6.80
2023-02-11T03:37:36.581Z,6.70
2023-02-11T03:40:08.263Z,6.80
2023-02-11T03:42:41.375Z,7.00
2023-02-11T03:45:11.815Z,6.90
2023-02-11T03:47:43.578Z,6.90
2023-02-11T03:50:14.879Z,6.70
2023-02-11T03:52:42.845Z,6.70
2023-02-11T03:55:13.975Z,6.70
2023-02-11T03:57:41.145Z,6.60
2023-02-11T04:00:09.955Z,6.60
2023-02-11T04:02:39.189Z,6.60
2023-02-11T04:05:08.009Z,6.60
2023-02-11T04:07:36.501Z,6.50
2023-02-11T04:10:04.050Z,6.60
2023-02-11T04:12:31.116Z,6.60
2023-02-11T04:14:58.340Z,6.60
2023-02-11T04:17:31.589Z,6.70
2023-02-11T04:19:58.644Z,6.80
2023-02-11T04:22:25.816Z,6.70
2023-02-11T04:24:54.296Z,6.70
2023-02-11T04:27:21.412Z,6.60
2023-02-11T04:29:48.446Z,6.60
2023-02-11T04:32:15.662Z,6.50
2023-02-11T04:34:42.680Z,6.60
2023-02-11T04:37:09.925Z,6.60
2023-02-11T04:39:37.175Z,6.50
2023-02-11T04:42:05.746Z,6.50
2023-02-11T04:44:32.909Z,6.60
2023-02-11T04:47:00.081Z,6.50
2023-02-11T04:49:27.128Z,6.40
2023-02-11T04:51:54.179Z,6.50
2023-02-11T04:54:21.200Z,6.50
2023-02-11T04:56:48.418Z,6.50
2023-02-11T04:59:17.273Z,6.60
2023-02-11T05:01:44.321Z,6.60
2023-02-11T05:04:11.512Z,6.60
2023-02-11T05:06:39.435Z,6.70
2023-02-11T05:09:06.514Z,6.60
2023-02-11T05:11:36.485Z,6.60
2023-02-11T05:14:03.596Z,6.60
2023-02-11T05:16:32.184Z,6.60
2023-02-11T05:18:59.295Z,6.60
2023-02-11T05:21:26.376Z,6.70
2023-02-11T05:23:53.537Z,6.90
2023-02-11T05:26:20.522Z,7.00
2023-02-11T05:28:47.543Z,6.90
2023-02-11T05:31:15.037Z,6.80
2023-02-11T05:33:43.612Z,6.70
2023-02-11T05:36:12.886Z,6.80
2023-02-11T05:38:40.508Z,6.80
2023-02-11T05:41:07.825Z,6.80
2023-02-11T05:43:35.516Z,6.90
2023-02-11T05:46:03.452Z,6.90
2023-02-11T05:48:31.506Z,6.90
2023-02-11T05:51:00.083Z,6.90
2023-02-11T05:53:29.815Z,6.90
2023-02-11T05:55:56.958Z,6.80
2023-02-11T05:58:24.059Z,6.90
2023-02-11T06:00:53.998Z,7.00
2023-02-11T06:03:21.189Z,7.10
2023-02-11T06:05:48.812Z,6.90
2023-02-11T06:08:17.463Z,6.90
2023-02-11T06:10:45.361Z,6.80
2023-02-11T06:13:12.552Z,6.70
2023-02-11T06:15:39.799Z,6.70
2023-02-11T06:18:07.974Z,6.80
2023-02-11T06:20:34.995Z,6.80
2023-02-11T06:23:01.992Z,6.90
2023-02-11T06:25:30.482Z,6.90
2023-02-11T06:27:57.567Z,6.80
2023-02-11T06:30:24.664Z,6.80
2023-02-11T06:32:51.720Z,6.80
2023-02-11T06:35:18.893Z,7.10
2023-02-11T06:37:45.957Z,7.10
2023-02-11T06:40:13.628Z,6.90
2023-02-11T06:42:42.104Z,6.90
2023-02-11T06:45:10.236Z,6.80
2023-02-11T06:47:37.510Z,6.70
2023-02-11T06:50:05.592Z,6.60
2023-02-11T06:52:33.039Z,6.60
2023-02-11T06:55:00.209Z,6.60
2023-02-11T06:57:27.382Z,6.60
2023-02-11T06:59:55.942Z,6.60
2023-02-11T07:02:23.011Z,6.60
2023-02-11T07:04:50.140Z,6.50
2023-02-11T07:07:17.133Z,6.70
2023-02-11T07:09:44.274Z,6.60
2023-02-11T07:12:11.290Z,6.60
2023-02-11T07:14:38.381Z,6.60
2023-02-11T07:17:06.723Z,6.60
2023-02-11T07:19:33.714Z,6.60
2023-02-11T07:22:00.843Z,6.60
2023-02-11T07:24:27.889Z,6.60
2023-02-11T07:26:54.939Z,6.80
2023-02-11T07:29:22.158Z,6.90
2023-02-11T07:31:49.300Z,6.90
2023-02-11T07:34:17.771Z,6.90
2023-02-11T07:36:44.815Z,6.80
2023-02-11T07:39:12.046Z,6.80
2023-02-11T07:41:39.268Z,6.70
2023-02-11T07:44:06.369Z,6.70
2023-02-11T07:46:33.441Z,6.80
2023-02-11T07:49:00.565Z,6.90
2023-02-11T07:51:31.007Z,7.00
2023-02-11T07:53:59.543Z,6.80
2023-02-11T07:56:27.466Z,6.80
2023-02-11T07:58:55.419Z,6.70
2023-02-11T08:01:24.969Z,6.70
2023-02-11T08:03:52.682Z,6.80
2023-02-11T08:06:21.985Z,6.80
2023-02-11T08:08:51.049Z,6.90
2023-02-11T08:11:20.456Z,6.90
2023-02-11T08:13:47.753Z,6.90
2023-02-11T08:16:19.361Z,6.90
2023-02-11T08:18:47.007Z,6.80
2023-02-11T08:21:14.085Z,6.80
2023-02-11T08:23:42.496Z,6.70
2023-02-11T08:26:13.686Z,6.80
2023-02-11T08:28:42.219Z,6.90
2023-02-11T08:31:10.935Z,7.00
2023-02-11T08:33:38.325Z,7.00
2023-02-11T08:36:09.685Z,7.00
2023-02-11T08:38:36.736Z,6.90
2023-02-11T08:41:04.197Z,6.90
2023-02-11T08:43:32.614Z,6.90
2023-02-11T08:46:02.032Z,7.00
2023-02-11T08:48:30.104Z,7.00
2023-02-11T08:50:57.774Z,7.00
2023-02-11T08:53:25.288Z,7.00
2023-02-11T08:55:54.054Z,7.10
2023-02-11T08:58:22.762Z,7.10
2023-02-11T09:00:51.453Z,7.20
2023-02-11T09:03:18.724Z,7.20
2023-02-11T09:05:48.115Z,7.20
2023-02-11T09:08:15.255Z,7.20
2023-02-11T09:10:45.662Z,7.00
2023-02-11T09:13:12.718Z,6.90
2023-02-11T09:15:39.774Z,7.00
2023-02-11T09:18:08.146Z,6.90
2023-02-11T09:20:35.262Z,6.90
2023-02-11T09:23:02.360Z,7.00
2023-02-11T09:25:29.344Z,7.00
2023-02-11T09:27:56.320Z,7.20
2023-02-11T09:30:27.650Z,7.10
2023-02-11T09:32:54.657Z,7.20
2023-02-11T09:35:25.680Z,7.30
2023-02-11T09:37:52.809Z,7.30
2023-02-11T09:40:33.092Z,7.40
2023-02-11T09:43:04.376Z,7.60
2023-02-11T09:45:34.958Z,7.50
2023-02-11T09:48:06.460Z,7.70
2023-02-11T09:50:36.255Z,7.60
2023-02-11T09:53:08.187Z,7.50
2023-02-11T09:55:38.517Z,7.50
2023-02-11T09:58:12.111Z,7.60
2023-02-11T10:00:44.741Z,7.80
2023-02-11T10:03:47.593Z,7.70
2023-02-11T10:06:38.730Z,7.60
2023-02-11T10:09:32.018Z,7.50
2023-02-11T10:12:11.574Z,7.50
2023-02-11T10:15:12.798Z,7.60
2023-02-11T10:17:57.186Z,7.90
2023-02-11T10:20:36.483Z,7.80
2023-02-11T10:23:13.462Z,7.80
2023-02-11T10:25:45.395Z,7.80
2023-02-11T10:28:15.950Z,7.90
2023-02-11T10:30:49.644Z,7.80
2023-02-11T10:33:30.063Z,7.80
2023-02-11T10:35:57.113Z,7.80
2023-02-11T10:38:26.398Z,8.00
2023-02-11T10:40:53.546Z,8.10
2023-02-11T10:43:26.661Z,8.30
2023-02-11T10:45:55.344Z,8.30
2023-02-11T10:48:41.689Z,8.10
2023-02-11T10:51:15.869Z,8.20
2023-02-11T10:53:48.210Z,8.00
2023-02-11T10:56:26.636Z,8.00
2023-02-11T10:59:00.624Z,8.00
2023-02-11T11:01:43.883Z,8.00
2023-02-11T11:04:34.619Z,8.10
2023-02-11T11:07:12.953Z,8.20
2023-02-11T11:09:48.327Z,8.20
2023-02-11T11:12:26.782Z,8.20
2023-02-11T11:14:58.544Z,8.20
2023-02-11T11:17:25.838Z,8.20
2023-02-11T11:19:52.886Z,8.20
2023-02-11T11:22:22.003Z,8.30
2023-02-11T11:24:50.648Z,8.40
2023-02-11T11:27:20.156Z,8.30
2023-02-11T11:29:49.673Z,8.30
2023-02-11T11:32:21.117Z,8.20
2023-02-11T11:34:51.220Z,8.20
2023-02-11T11:37:23.362Z,8.20
2023-02-11T11:39:56.707Z,8.20
2023-02-11T11:45:24.417Z,8.40
2023-02-11T11:47:54.717Z,8.50
2023-02-11T11:50:29.126Z,8.50
2023-02-11T11:53:04.900Z,8.70
2023-02-11T11:55:39.343Z,8.70
2023-02-11T11:58:16.923Z,8.80
2023-02-11T12:00:52.466Z,8.90
2023-02-11T12:04:04.207Z,8.60
2023-02-11T12:06:41.280Z,8.50
2023-02-11T12:09:20.263Z,8.50
2023-02-11T12:12:10.841Z,8.60
2023-02-11T12:14:50.299Z,8.70
2023-02-11T12:17:33.422Z,8.60
2023-02-11T12:20:22.212Z,8.70
2023-02-11T12:23:00.528Z,8.80
2023-02-11T12:25:30.092Z,9.00
2023-02-11T12:28:12.305Z,8.90
2023-02-11T12:30:54.331Z,8.60
2023-02-11T12:33:34.998Z,8.60
2023-02-11T12:36:09.910Z,8.60
2023-02-11T12:38:42.044Z,8.70
2023-02-11T12:41:32.700Z,9.00
2023-02-11T12:44:01.889Z,8.90
2023-02-11T12:46:36.877Z,8.80
2023-02-11T12:49:22.745Z,8.70
2023-02-11T12:52:02.966Z,9.00
2023-02-11T12:54:34.267Z,9.00
2023-02-11T12:57:06.165Z,9.00
2023-02-11T12:59:47.642Z,8.90
2023-02-11T13:02:27.577Z,8.80
2023-02-11T13:04:57.434Z,8.80
2023-02-11T13:07:30.888Z,8.70
2023-02-11T13:10:03.623Z,8.70
2023-02-11T13:12:33.614Z,8.70
2023-02-11T13:15:12.823Z,8.90
2023-02-11T13:17:46.062Z,8.90
2023-02-11T13:20:23.951Z,8.90
2023-02-11T13:22:59.313Z,9.00
2023-02-11T13:25:31.485Z,8.90
2023-02-11T13:28:05.923Z,8.90
2023-02-11T13:30:35.960Z,8.90
2023-02-11T13:33:22.112Z,9.00
2023-02-11T13:36:17.353Z,9.10
2023-02-11T13:38:57.342Z,9.00
2023-02-11T13:41:28.879Z,8.90
2023-02-11T13:44:03.090Z,8.90
2023-02-11T13:46:54.182Z,9.00
2023-02-11T13:49:24.639Z,9.10
2023-02-11T13:51:55.867Z,9.00
2023-02-11T13:54:37.760Z,9.00
2023-02-11T13:57:36.257Z,9.00
2023-02-11T14:00:26.173Z,9.10
2023-02-11T14:03:31.626Z,9.10
2023-02-11T14:06:15.777Z,9.10
2023-02-11T14:09:06.881Z,9.10
2023-02-11T14:11:46.928Z,9.00
2023-02-11T14:14:20.567Z,9.00
2023-02-11T14:17:21.097Z,9.00
2023-02-11T14:19:49.065Z,9.10
2023-02-11T14:22:20.339Z,9.10
2023-02-11T14:24:53.895Z,9.10
2023-02-11T14:27:36.251Z,9.10
2023-02-11T14:30:31.897Z,9.10
2023-02-11T14:33:09.902Z,9.10
2023-02-11T14:35:44.052Z,9.10
2023-02-11T14:38:20.714Z,9.00
2023-02-11T14:40:56.734Z,9.00
2023-02-11T14:43:29.125Z,9.10
2023-02-11T14:45:58.484Z,9.00
2023-02-11T14:48:30.920Z,9.20
2023-02-11T14:51:02.681Z,9.10
2023-02-11T14:53:33.227Z,9.20
2023-02-11T14:56:00.674Z,9.40
2023-02-11T14:58:34.965Z,9.40
2023-02-11T15:01:04.388Z,9.40
2023-02-11T15:03:34.283Z,9.30
2023-02-11T15:06:06.158Z,9.40
2023-02-11T15:08:36.591Z,9.40
2023-02-11T15:11:10.184Z,9.40
2023-02-11T15:13:37.960Z,9.30
2023-02-11T15:16:10.197Z,9.30
2023-02-11T15:18:40.421Z,9.30
2023-02-11T15:21:08.372Z,9.30
2023-02-11T15:23:37.174Z,9.10
2023-02-11T15:26:13.188Z,9.20
2023-02-11T15:28:47.243Z,9.20
2023-02-11T15:31:15.830Z,9.20
2023-02-11T15:33:42.935Z,9.30
2023-02-11T15:36:11.820Z,9.30
2023-02-11T15:38:40.821Z,9.30
2023-02-11T15:41:08.912Z,9.30
2023-02-11T15:43:44.365Z,9.30
2023-02-11T15:46:15.192Z,9.30
2023-02-11T15:48:44.327Z,9.30
2023-02-11T15:51:19.787Z,9.30
2023-02-11T15:53:52.824Z,9.30
2023-02-11T15:56:24.215Z,9.30
2023-02-11T15:58:53.674Z,9.30
2023-02-11T16:01:33.147Z,9.20
2023-02-11T16:04:01.352Z,9.20
2023-02-11T16:06:37.195Z,9.20
2023-02-11T16:09:21.594Z,9.20
2023-02-11T16:11:56.450Z,9.20
2023-02-11T16:14:30.329Z,9.20
2023-02-11T16:17:00.016Z,9.20
2023-02-11T16:19:28.763Z,9.20
2023-02-11T16:21:58.242Z,9.10
2023-02-11T16:24:29.612Z,9.20
2023-02-11T16:26:59.824Z,9.20
2023-02-11T16:29:28.736Z,9.20
2023-02-11T16:32:06.976Z,9.30
2023-02-11T16:34:34.133Z,9.30
2023-02-11T16:37:04.223Z,9.30
2023-02-11T16:39:32.969Z,9.30
2023-02-11T16:42:00.617Z,9.30
2023-02-11T16:44:27.674Z,9.20
2023-02-11T16:46:55.640Z,9.30
2023-02-11T16:49:25.502Z,9.20
2023-02-11T16:51:55.034Z,9.20
2023-02-11T16:54:22.475Z,9.30
2023-02-11T16:56:50.888Z,9.30
2023-02-11T16:59:18.495Z,9.20
2023-02-11T17:01:46.853Z,9.10
2023-02-11T17:04:19.295Z,9.10
2023-02-11T17:06:46.358Z,9.10
2023-02-11T17:09:18.175Z,9.10
2023-02-11T17:11:45.164Z,9.00
2023-02-11T17:14:13.550Z,9.10
2023-02-11T17:16:40.991Z,9.00
2023-02-11T17:19:09.622Z,9.10
2023-02-11T17:21:36.583Z,9.00
2023-02-11T17:24:03.837Z,8.90
2023-02-11T17:26:30.855Z,8.80
2023-02-11T17:28:57.900Z,8.80
2023-02-11T17:31:26.444Z,8.80
2023-02-11T17:33:53.536Z,8.90
2023-02-11T17:36:20.627Z,8.90
2023-02-11T17:38:47.861Z,8.90
2023-02-11T17:41:15.014Z,8.80
2023-02-11T17:43:42.058Z,8.80
2023-02-11T17:46:09.968Z,8.90
2023-02-11T17:48:39.255Z,8.90
2023-02-11T17:51:20.195Z,9.00
2023-02-11T17:53:47.280Z,9.00
2023-02-11T17:56:14.260Z,9.10
2023-02-11T17:58:41.358Z,9.10
2023-02-11T18:01:08.911Z,9.10
2023-02-11T18:03:36.018Z,9.00
2023-02-11T18:06:06.575Z,9.00
2023-02-11T18:08:34.380Z,9.10
2023-02-11T18:11:01.641Z,9.10
2023-02-11T18:13:29.249Z,9.10
2023-02-11T18:16:01.794Z,9.10
2023-02-11T18:18:28.791Z,9.10
2023-02-11T18:20:56.786Z,9.10
2023-02-11T18:23:25.783Z,9.10
2023-02-11T18:25:53.116Z,9.10
2023-02-11T18:28:20.391Z,9.10
2023-02-11T18:30:47.514Z,9.10
2023-02-11T18:33:14.615Z,9.00
2023-02-11T18:35:42.619Z,9.00
2023-02-11T18:38:10.324Z,9.00
2023-02-11T18:40:41.079Z,9.00
2023-02-11T18:43:08.185Z,9.00
2023-02-11T18:45:35.579Z,8.90
2023-02-11T18:48:02.642Z,8.90
2023-02-11T18:50:29.638Z,8.90
2023-02-11T18:52:56.651Z,8.90
2023-02-11T18:55:23.798Z,8.90
2023-02-11T18:57:52.379Z,9.10
2023-02-11T19:00:20.839Z,9.00
2023-02-11T19:02:48.027Z,9.00
2023-02-11T19:05:15.309Z,9.00
2023-02-11T19:07:42.319Z,9.00
2023-02-11T19:10:09.915Z,9.10
2023-02-11T19:12:37.902Z,9.20
2023-02-11T19:15:07.536Z,9.10
2023-02-11T19:17:34.651Z,9.00
2023-02-11T19:20:01.771Z,9.00
2023-02-11T19:22:28.842Z,9.00
2023-02-11T19:24:55.905Z,9.00
2023-02-11T19:27:23.117Z,9.00
2023-02-11T19:29:50.162Z,9.00
2023-02-11T19:32:18.875Z,8.90
2023-02-11T19:34:45.833Z,8.90
2023-02-11T19:37:13.188Z,8.90
2023-02-11T19:39:40.834Z,8.80
2023-02-11T19:42:07.926Z,8.80
2023-02-11T19:44:34.943Z,8.80
2023-02-11T19:47:01.933Z,8.70
2023-02-11T19:49:30.379Z,8.70
2023-02-11T19:51:57.570Z,8.80
2023-02-11T19:54:25.152Z,8.90
2023-02-11T19:56:52.919Z,8.90
2023-02-11T19:59:20.645Z,8.90
2023-02-11T20:01:47.881Z,8.80
2023-02-11T20:04:15.488Z,8.90
2023-02-11T20:06:44.447Z,8.90
2023-02-11T20:09:13.862Z,8.90
2023-02-11T20:11:42.085Z,8.80
2023-02-11T20:14:11.539Z,8.70
2023-02-11T20:16:48.032Z,8.70
2023-02-11T20:19:18.571Z,8.80
2023-02-11T20:21:48.808Z,8.80
2023-02-11T20:24:16.905Z,8.70
2023-02-11T20:26:44.377Z,8.80
2023-02-11T20:29:11.437Z,8.90
2023-02-11T20:31:38.516Z,9.00
2023-02-11T20:34:05.714Z,9.00
2023-02-11T20:36:34.194Z,8.90
2023-02-11T20:39:04.385Z,8.80
2023-02-11T20:41:34.029Z,8.80
2023-02-11T20:44:02.712Z,8.80
2023-02-11T20:46:32.104Z,8.70
2023-02-11T20:48:59.988Z,8.60
2023-02-11T20:51:30.126Z,8.50
2023-02-11T20:53:58.083Z,8.60
2023-02-11T20:56:28.660Z,8.70
2023-02-11T20:58:57.297Z,8.70
2023-02-11T21:01:26.296Z,8.70
2023-02-11T21:03:55.798Z,8.70
2023-02-11T21:06:24.292Z,8.60
2023-02-11T21:08:51.529Z,8.60
2023-02-11T21:11:18.666Z,8.60
2023-02-11T21:13:47.069Z,8.70
2023-02-11T21:16:15.976Z,8.70
2023-02-11T21:18:43.628Z,8.80
2023-02-11T21:21:10.685Z,8.80
2023-02-11T21:23:37.899Z,8.80
2023-02-11T21:26:05.593Z,8.80
2023-02-11T21:28:32.779Z,8.80
2023-02-11T21:31:04.694Z,8.90
2023-02-11T21:33:32.422Z,8.80
2023-02-11T21:36:01.682Z,8.80
2023-02-11T21:38:29.096Z,8.70
2023-02-11T21:41:01.948Z,8.60
2023-02-11T21:43:28.968Z,8.60
2023-02-11T21:45:56.501Z,8.70
2023-02-11T21:48:25.140Z,8.70
2023-02-11T21:50:52.749Z,8.70
2023-02-11T21:53:19.862Z,8.70
2023-02-11T21:55:46.859Z,8.70
2023-02-11T21:58:14.056Z,8.60
2023-02-11T22:00:41.432Z,8.50
2023-02-11T22:03:08.579Z,8.50
2023-02-11T22:05:40.133Z,8.40
2023-02-11T22:08:07.225Z,8.60
2023-02-11T22:10:34.217Z,8.60
2023-02-11T22:13:01.404Z,8.60
2023-02-11T22:15:28.495Z,8.50
2023-02-11T22:17:55.436Z,8.50
2023-02-11T22:20:22.550Z,8.60
2023-02-11T22:22:50.892Z,8.60
2023-02-11T22:25:18.020Z,8.60
2023-02-11T22:27:45.024Z,8.60
2023-02-11T22:30:12.991Z,8.60
2023-02-11T22:32:39.997Z,8.60
2023-02-11T22:35:07.368Z,8.60
2023-02-11T22:37:34.449Z,8.60
2023-02-11T22:40:02.844Z,8.60
2023-02-11T22:42:29.866Z,8.60
2023-02-11T22:44:56.943Z,8.60
2023-02-11T22:47:23.999Z,8.60
2023-02-11T22:49:51.161Z,8.60
2023-02-11T22:52:18.154Z,8.70
2023-02-11T22:54:45.312Z,8.70
2023-02-11T22:57:13.928Z,8.70
2023-02-11T22:59:40.948Z,8.50
2023-02-11T23:02:08.043Z,8.60
2023-02-11T23:04:35.275Z,8.60
2023-02-11T23:07:02.268Z,8.60
2023-02-11T23:09:29.278Z,8.60
2023-02-11T23:11:56.251Z,8.60
2023-02-11T23:14:24.708Z,8.60
2023-02-11T23:16:51.836Z,8.50
2023-02-11T23:19:19.261Z,8.50
2023-02-11T23:21:46.499Z,8.50
2023-02-11T23:24:14.590Z,8.50
2023-02-11T23:26:43.077Z,8.50
2023-02-11T23:29:10.916Z,8.50
2023-02-11T23:31:41.594Z,8.40
2023-02-11T23:34:08.861Z,8.50
2023-02-11T23:36:35.961Z,8.40
2023-02-11T23:39:03.580Z,8.40
2023-02-11T23:41:30.820Z,8.40
2023-02-11T23:43:58.179Z,8.40
2023-02-11T23:46:26.617Z,8.40
2023-02-11T23:48:55.218Z,8.40
2023-02-11T23:51:22.900Z,8.40
2023-02-11T23:53:50.895Z,8.40
2023-02-11T23:56:19.890Z,8.30
2023-02-11T23:58:48.544Z,8.40
